Time;durP1;ratioP1;P1;durP2;ratioP2;P2;SDS_P1;SDS_P2;PMS_P1;PMS_P2;Temp;Humidity;BMP_temperature;BMP_pressure;BME280_temperature;BME280_humidity;BME280_pressure;Samples;Min_cycle;Max_cycle;Signal;HPM_P1;HPM_P2
2022/11/20 00:01:56;;;;;;;21.67;14.43;;;;;;;;;;5060789;28;20217;-80
2022/11/20 00:04:22;;;;;;;20.47;13.67;;;;;;;;;;5075041;28;20197;-81
2022/11/20 00:06:48;;;;;;;23.43;15.57;;;;;;;;;;5089054;28;20196;-81
2022/11/20 00:09:14;;;;;;;22.57;14.60;;;;;;;;;;5067415;28;20196;-81
2022/11/20 00:11:41;;;;;;;21.20;14.30;;;;;;;;;;5078631;28;20180;-81
2022/11/20 00:14:09;;;;;;;21.93;15.23;;;;;;;;;;5087769;28;20691;-80
2022/11/20 00:16:35;;;;;;;23.03;14.53;;;;;;;;;;5082697;28;20733;-81
2022/11/20 00:19:02;;;;;;;23.93;14.57;;;;;;;;;;5058190;28;20215;-81
2022/11/20 00:21:28;;;;;;;22.63;15.43;;;;;;;;;;5067281;28;20709;-82
2022/11/20 00:23:56;;;;;;;21.33;14.13;;;;;;;;;;5072105;28;20268;-80
2022/11/20 00:26:23;;;;;;;20.80;13.30;;;;;;;;;;5059497;28;20247;-82
2022/11/20 00:28:54;;;;;;;21.37;14.37;;;;;;;;;;5076170;28;20193;-82
2022/11/20 00:31:20;;;;;;;21.43;14.40;;;;;;;;;;5057880;28;20184;-82
2022/11/20 00:33:46;;;;;;;21.00;13.90;;;;;;;;;;5094180;28;20268;-82
2022/11/20 00:36:17;;;;;;;19.23;12.77;;;;;;;;;;5077386;28;20203;-82
2022/11/20 00:38:44;;;;;;;18.93;12.47;;;;;;;;;;5066212;28;20549;-81
2022/11/20 00:41:11;;;;;;;19.60;12.53;;;;;;;;;;5056378;28;20195;-82
2022/11/20 00:43:38;;;;;;;18.70;12.73;;;;;;;;;;5083804;28;20851;-82
2022/11/20 00:46:14;;;;;;;19.20;12.53;;;;;;;;;;5057553;28;20208;-81
2022/11/20 00:48:41;;;;;;;20.37;13.23;;;;;;;;;;5072878;28;20261;-82
2022/11/20 00:51:07;;;;;;;20.97;13.40;;;;;;;;;;5086086;28;20197;-82
2022/11/20 00:53:33;;;;;;;16.43;11.57;;;;;;;;;;5085174;28;20480;-82
2022/11/20 00:56:01;;;;;;;19.47;12.70;;;;;;;;;;5056719;28;20243;-82
2022/11/20 00:58:35;;;;;;;19.13;12.47;;;;;;;;;;5083989;28;20267;-82
2022/11/20 01:01:05;;;;;;;15.93;11.43;;;;;;;;;;5075061;28;20181;-82
2022/11/20 01:03:32;;;;;;;17.47;12.17;;;;;;;;;;5075003;28;20689;-82
2022/11/20 01:06:06;;;;;;;18.93;12.33;;;;;;;;;;5099823;28;20211;-81
2022/11/20 01:08:33;;;;;;;20.57;14.03;;;;;;;;;;5081033;28;20184;-82
2022/11/20 01:11:00;;;;;;;19.13;12.57;;;;;;;;;;5081635;28;20188;-81
2022/11/20 01:13:38;;;;;;;21.90;14.47;;;;;;;;;;5054901;28;20660;-82
2022/11/20 01:16:06;;;;;;;18.23;13.10;;;;;;;;;;5071547;28;20656;-81
2022/11/20 01:18:32;;;;;;;21.33;13.73;;;;;;;;;;5047387;28;20184;-83
2022/11/20 01:21:06;;;;;;;20.37;14.43;;;;;;;;;;5051566;28;20804;-81
2022/11/20 01:23:36;;;;;;;19.43;13.27;;;;;;;;;;5061961;28;20600;-82
2022/11/20 01:26:03;;;;;;;18.03;12.57;;;;;;;;;;5073880;28;20251;-82
2022/11/20 01:28:30;;;;;;;18.77;12.03;;;;;;;;;;5065860;28;20628;-81
2022/11/20 01:30:56;;;;;;;17.47;12.27;;;;;;;;;;5096237;28;20211;-83
2022/11/20 01:33:23;;;;;;;15.27;10.87;;;;;;;;;;5095084;28;20679;-83
2022/11/20 01:35:49;;;;;;;16.93;12.43;;;;;;;;;;5083137;28;20238;-81
2022/11/20 01:38:16;;;;;;;17.97;12.53;;;;;;;;;;5094862;28;20182;-81
2022/11/20 01:40:42;;;;;;;18.63;12.47;;;;;;;;;;5057616;28;20191;-81
2022/11/20 01:43:20;;;;;;;17.87;12.23;;;;;;;;;;5081628;28;20405;-82
2022/11/20 01:45:59;;;;;;;15.70;11.23;;;;;;;;;;5051581;28;20411;-82
2022/11/20 01:48:27;;;;;;;15.43;11.33;;;;;;;;;;5075265;28;20588;-82
2022/11/20 01:50:53;;;;;;;14.80;10.53;;;;;;;;;;5071026;28;20551;-82
2022/11/20 01:53:22;;;;;;;16.87;11.67;;;;;;;;;;5075230;28;20182;-82
2022/11/20 01:55:50;;;;;;;16.83;11.30;;;;;;;;;;5090950;28;20207;-83
2022/11/20 01:58:19;;;;;;;20.00;13.23;;;;;;;;;;5065683;28;20181;-82
2022/11/20 02:00:45;;;;;;;18.57;12.67;;;;;;;;;;5076596;28;20238;-82
2022/11/20 02:03:13;;;;;;;14.33;10.47;;;;;;;;;;5054771;28;20313;-82
2022/11/20 02:05:48;;;;;;;13.80;10.47;;;;;;;;;;5053551;28;20204;-82
2022/11/20 02:08:14;;;;;;;15.10;10.70;;;;;;;;;;5067151;28;20155;-81
2022/11/20 02:10:40;;;;;;;16.17;11.60;;;;;;;;;;5069737;28;20259;-78
2022/11/20 02:15:52;;;;;;;14.40;10.30;;;;;;;;;;5069773;28;20212;-81
2022/11/20 02:18:19;;;;;;;15.10;10.30;;;;;;;;;;5078181;28;20172;-83
2022/11/20 02:20:47;;;;;;;14.73;10.17;;;;;;;;;;5091740;28;20795;-80
2022/11/20 02:23:18;;;;;;;13.87;10.10;;;;;;;;;;5089434;28;20249;-80
2022/11/20 02:25:46;;;;;;;14.90;10.27;;;;;;;;;;5082940;28;20227;-79
2022/11/20 02:28:12;;;;;;;14.17;10.27;;;;;;;;;;5060015;28;20192;-79
2022/11/20 02:30:38;;;;;;;17.33;11.50;;;;;;;;;;5087337;28;20540;-82
2022/11/20 02:33:05;;;;;;;15.63;11.20;;;;;;;;;;5081723;28;20299;-82
2022/11/20 02:35:31;;;;;;;17.37;11.97;;;;;;;;;;5071532;28;20839;-80
2022/11/20 02:37:58;;;;;;;13.83;10.50;;;;;;;;;;5069433;28;20307;-82
2022/11/20 02:40:25;;;;;;;16.13;11.60;;;;;;;;;;5084692;28;20181;-82
2022/11/20 02:42:55;;;;;;;19.20;13.30;;;;;;;;;;5078204;28;20226;-82
2022/11/20 02:45:22;;;;;;;19.60;13.17;;;;;;;;;;5070636;28;21104;-82
2022/11/20 02:47:49;;;;;;;17.57;12.47;;;;;;;;;;5082066;28;20188;-82
2022/11/20 02:50:15;;;;;;;16.33;11.80;;;;;;;;;;5067479;28;20663;-82
2022/11/20 02:52:41;;;;;;;17.93;12.87;;;;;;;;;;5073445;28;20320;-82
2022/11/20 02:55:07;;;;;;;19.70;13.20;;;;;;;;;;5068736;28;20216;-82
2022/11/20 02:57:34;;;;;;;19.70;13.03;;;;;;;;;;5056615;28;20185;-82
2022/11/20 03:00:00;;;;;;;17.60;12.07;;;;;;;;;;5073416;28;20188;-82
2022/11/20 03:02:26;;;;;;;19.20;13.10;;;;;;;;;;5079538;28;20169;-82
2022/11/20 03:04:52;;;;;;;18.47;12.93;;;;;;;;;;5050977;28;20165;-81
2022/11/20 03:07:18;;;;;;;17.57;12.20;;;;;;;;;;5078058;28;20184;-82
2022/11/20 03:09:44;;;;;;;16.27;11.63;;;;;;;;;;5062062;28;20197;-81
2022/11/20 03:12:11;;;;;;;17.13;12.33;;;;;;;;;;5075453;28;20192;-81
2022/11/20 03:14:40;;;;;;;16.57;11.87;;;;;;;;;;5066992;28;20246;-82
2022/11/20 03:17:06;;;;;;;18.90;12.73;;;;;;;;;;5061444;28;20222;-81
2022/11/20 03:19:32;;;;;;;18.47;12.50;;;;;;;;;;5078286;28;20629;-82
2022/11/20 03:21:59;;;;;;;18.23;12.67;;;;;;;;;;5055207;28;20234;-82
2022/11/20 03:24:26;;;;;;;21.20;13.73;;;;;;;;;;5082573;28;20717;-82
2022/11/20 03:26:52;;;;;;;18.73;12.87;;;;;;;;;;5089443;28;20208;-82
2022/11/20 03:29:18;;;;;;;21.97;14.87;;;;;;;;;;5090009;28;20177;-82
2022/11/20 03:31:44;;;;;;;19.80;14.40;;;;;;;;;;5057787;28;20192;-82
2022/11/20 03:34:11;;;;;;;20.80;13.70;;;;;;;;;;5059818;28;20219;-82
2022/11/20 03:36:41;;;;;;;19.37;13.43;;;;;;;;;;5094591;28;20204;-82
2022/11/20 03:39:08;;;;;;;19.80;13.27;;;;;;;;;;5062326;28;20180;-82
2022/11/20 03:41:39;;;;;;;17.60;12.57;;;;;;;;;;5074237;28;20409;-82
2022/11/20 03:44:06;;;;;;;20.17;13.83;;;;;;;;;;5073806;28;20904;-82
2022/11/20 03:46:33;;;;;;;21.63;13.50;;;;;;;;;;5071105;28;20230;-82
2022/11/20 03:48:59;;;;;;;18.50;13.17;;;;;;;;;;5083186;28;20835;-81
2022/11/20 03:51:26;;;;;;;18.80;12.80;;;;;;;;;;5055019;28;20272;-82
2022/11/20 03:53:54;;;;;;;19.03;12.43;;;;;;;;;;5049810;28;20184;-81
2022/11/20 03:56:23;;;;;;;19.23;13.17;;;;;;;;;;5087790;28;20208;-81
2022/11/20 03:58:49;;;;;;;20.43;14.20;;;;;;;;;;5087264;28;20256;-82
2022/11/20 04:01:16;;;;;;;20.23;13.77;;;;;;;;;;5059439;28;20973;-81
2022/11/20 04:03:43;;;;;;;18.90;13.03;;;;;;;;;;5059679;28;20208;-82
2022/11/20 04:06:10;;;;;;;18.07;13.00;;;;;;;;;;5075016;28;20200;-82
2022/11/20 04:08:36;;;;;;;18.00;13.10;;;;;;;;;;5065741;28;20253;-82
2022/11/20 04:11:15;;;;;;;17.37;12.83;;;;;;;;;;5090540;28;20727;-82
2022/11/20 04:13:42;;;;;;;19.17;13.07;;;;;;;;;;5057308;28;20189;-82
2022/11/20 04:16:09;;;;;;;19.30;13.53;;;;;;;;;;5080448;28;20204;-81
2022/11/20 04:18:35;;;;;;;16.97;11.47;;;;;;;;;;5081676;28;20642;-82
2022/11/20 04:21:01;;;;;;;19.03;13.40;;;;;;;;;;5071262;28;20181;-82
2022/11/20 04:23:28;;;;;;;19.53;12.90;;;;;;;;;;5058568;28;20843;-82
2022/11/20 04:25:54;;;;;;;20.67;13.83;;;;;;;;;;5040739;28;20223;-82
2022/11/20 04:28:20;;;;;;;18.50;12.70;;;;;;;;;;5054718;28;20200;-82
2022/11/20 04:30:46;;;;;;;19.70;12.93;;;;;;;;;;5040075;28;20193;-82
2022/11/20 04:33:12;;;;;;;20.60;14.10;;;;;;;;;;5046279;28;20185;-82
2022/11/20 04:35:39;;;;;;;20.03;13.03;;;;;;;;;;5071612;28;20228;-82
2022/11/20 04:38:05;;;;;;;19.23;13.13;;;;;;;;;;5057418;28;20185;-82
2022/11/20 04:40:31;;;;;;;17.87;12.33;;;;;;;;;;5053091;28;20205;-81
2022/11/20 04:42:57;;;;;;;19.20;12.80;;;;;;;;;;5053836;28;20216;-81
2022/11/20 04:45:23;;;;;;;18.87;11.97;;;;;;;;;;5086891;28;20581;-82
2022/11/20 04:47:50;;;;;;;20.07;12.57;;;;;;;;;;5092869;28;20212;-82
2022/11/20 04:50:16;;;;;;;18.87;12.57;;;;;;;;;;5060558;28;20218;-81
2022/11/20 04:52:42;;;;;;;21.17;12.03;;;;;;;;;;5090086;28;20216;-82
2022/11/20 04:55:08;;;;;;;17.73;12.00;;;;;;;;;;5051570;28;20223;-83
2022/11/20 04:57:34;;;;;;;21.70;13.60;;;;;;;;;;5066387;28;20181;-81
2022/11/20 05:00:01;;;;;;;17.30;12.00;;;;;;;;;;5083038;28;20726;-82
2022/11/20 05:02:27;;;;;;;20.20;12.97;;;;;;;;;;5072809;28;20181;-81
2022/11/20 05:04:53;;;;;;;18.53;12.57;;;;;;;;;;5069966;28;20192;-82
2022/11/20 05:07:19;;;;;;;18.83;12.63;;;;;;;;;;5073819;28;20180;-82
2022/11/20 05:09:45;;;;;;;21.20;13.63;;;;;;;;;;5072858;28;20176;-82
2022/11/20 05:12:12;;;;;;;19.93;13.03;;;;;;;;;;5060637;28;20275;-81
2022/11/20 05:14:38;;;;;;;24.73;14.33;;;;;;;;;;5067721;28;20208;-81
2022/11/20 05:17:04;;;;;;;18.83;12.60;;;;;;;;;;5071698;28;20184;-84
2022/11/20 05:19:30;;;;;;;19.03;13.10;;;;;;;;;;5070618;28;20263;-78
2022/11/20 05:21:56;;;;;;;20.00;12.37;;;;;;;;;;5087335;28;20172;-80
2022/11/20 05:24:22;;;;;;;20.47;13.10;;;;;;;;;;5093475;28;20180;-78
2022/11/20 05:26:49;;;;;;;18.20;12.53;;;;;;;;;;5052776;28;20298;-80
2022/11/20 05:29:15;;;;;;;21.55;15.63;;;;;;;;;;5083078;28;20519;-77
2022/11/20 05:31:41;;;;;;;18.40;12.97;;;;;;;;;;5089351;28;21006;-80
2022/11/20 05:34:07;;;;;;;21.70;13.70;;;;;;;;;;5066922;28;20203;-82
2022/11/20 05:36:34;;;;;;;19.57;12.90;;;;;;;;;;5068638;28;20260;-81
2022/11/20 05:39:00;;;;;;;19.43;12.10;;;;;;;;;;5088231;28;20215;-82
2022/11/20 05:41:26;;;;;;;20.50;12.17;;;;;;;;;;5070317;28;20263;-82
2022/11/20 05:43:52;;;;;;;19.27;12.73;;;;;;;;;;5072887;28;20173;-81
2022/11/20 05:46:20;;;;;;;21.93;13.50;;;;;;;;;;5069684;28;20927;-81
2022/11/20 05:48:46;;;;;;;19.00;13.17;;;;;;;;;;5088969;28;20173;-81
2022/11/20 05:51:15;;;;;;;17.90;12.37;;;;;;;;;;5070866;28;20176;-82
2022/11/20 05:53:41;;;;;;;19.50;12.27;;;;;;;;;;5050679;28;20195;-81
2022/11/20 05:56:09;;;;;;;20.67;13.40;;;;;;;;;;5091508;28;20208;-83
2022/11/20 05:58:36;;;;;;;20.33;13.30;;;;;;;;;;5069549;28;20185;-83
2022/11/20 06:01:06;;;;;;;19.80;12.80;;;;;;;;;;5065490;28;20290;-82
2022/11/20 06:03:33;;;;;;;21.37;13.63;;;;;;;;;;5090614;28;20184;-81
2022/11/20 06:05:59;;;;;;;21.40;13.73;;;;;;;;;;5071381;28;20839;-82
2022/11/20 06:08:25;;;;;;;22.47;14.17;;;;;;;;;;5070406;28;20266;-82
2022/11/20 06:10:51;;;;;;;20.70;13.33;;;;;;;;;;5085689;28;20208;-81
2022/11/20 06:13:18;;;;;;;18.07;11.97;;;;;;;;;;5070034;28;20216;-82
2022/11/20 06:15:48;;;;;;;21.57;13.70;;;;;;;;;;5083617;28;20214;-82
2022/11/20 06:18:15;;;;;;;19.37;12.87;;;;;;;;;;5089585;28;20191;-81
2022/11/20 06:20:41;;;;;;;19.30;12.50;;;;;;;;;;5087772;28;20172;-82
2022/11/20 06:23:07;;;;;;;20.80;13.60;;;;;;;;;;5071205;28;20218;-82
2022/11/20 06:25:33;;;;;;;17.00;11.40;;;;;;;;;;5052550;28;20679;-81
2022/11/20 06:27:59;;;;;;;21.60;13.77;;;;;;;;;;5071265;28;20192;-81
2022/11/20 06:30:25;;;;;;;23.93;14.37;;;;;;;;;;5070542;28;20185;-82
2022/11/20 06:32:51;;;;;;;20.20;13.63;;;;;;;;;;5054347;28;20193;-82
2022/11/20 06:35:17;;;;;;;22.10;14.17;;;;;;;;;;5070146;28;20231;-81
2022/11/20 06:37:44;;;;;;;21.33;13.40;;;;;;;;;;5069823;28;20181;-82
2022/11/20 06:40:10;;;;;;;20.07;13.37;;;;;;;;;;5052575;28;20180;-82
2022/11/20 06:42:36;;;;;;;20.43;13.53;;;;;;;;;;5064916;28;20627;-81
2022/11/20 06:45:03;;;;;;;22.07;14.47;;;;;;;;;;5051905;28;20204;-82
2022/11/20 06:47:29;;;;;;;21.50;13.80;;;;;;;;;;5071508;28;20204;-80
2022/11/20 06:49:55;;;;;;;21.07;13.70;;;;;;;;;;5085300;28;20192;-81
2022/11/20 06:52:21;;;;;;;22.93;14.90;;;;;;;;;;5085914;28;20566;-82
2022/11/20 06:54:47;;;;;;;20.90;13.77;;;;;;;;;;5053614;28;20304;-82
2022/11/20 06:57:13;;;;;;;21.53;13.83;;;;;;;;;;5069130;28;20268;-81
2022/11/20 06:59:39;;;;;;;22.93;14.60;;;;;;;;;;5086239;28;20720;-82
2022/11/20 07:02:06;;;;;;;21.53;13.70;;;;;;;;;;5067212;28;20204;-82
2022/11/20 07:04:32;;;;;;;22.70;14.07;;;;;;;;;;5074549;28;20200;-81
2022/11/20 07:06:58;;;;;;;20.97;13.80;;;;;;;;;;5073218;28;20204;-82
2022/11/20 07:09:24;;;;;;;18.90;12.43;;;;;;;;;;5058666;28;20890;-82
2022/11/20 07:11:50;;;;;;;23.73;13.77;;;;;;;;;;5075492;28;20176;-83
2022/11/20 07:14:16;;;;;;;21.00;12.90;;;;;;;;;;5092771;28;22101;-81
2022/11/20 07:16:42;;;;;;;27.10;15.23;;;;;;;;;;5071275;28;20211;-82
2022/11/20 07:19:08;;;;;;;24.17;14.90;;;;;;;;;;5071293;28;20188;-82
2022/11/20 07:21:35;;;;;;;24.17;15.47;;;;;;;;;;5070798;28;20544;-81
2022/11/20 07:24:01;;;;;;;23.53;14.20;;;;;;;;;;5054201;28;20194;-82
2022/11/20 07:26:27;;;;;;;24.90;15.30;;;;;;;;;;5070729;28;20243;-82
2022/11/20 07:28:53;;;;;;;24.60;14.93;;;;;;;;;;5071156;28;20300;-82
2022/11/20 07:31:20;;;;;;;20.67;13.60;;;;;;;;;;5045330;28;20191;-81
2022/11/20 07:33:46;;;;;;;21.50;14.63;;;;;;;;;;5073509;28;20271;-80
2022/11/20 07:36:12;;;;;;;24.43;14.53;;;;;;;;;;5097655;28;20441;-78
2022/11/20 07:38:38;;;;;;;24.83;14.33;;;;;;;;;;5099836;28;20184;-80
2022/11/20 07:41:05;;;;;;;22.63;14.97;;;;;;;;;;5075620;28;20659;-80
2022/11/20 07:43:31;;;;;;;23.43;13.43;;;;;;;;;;5092573;28;20983;-80
2022/11/20 07:45:58;;;;;;;21.83;13.93;;;;;;;;;;5073233;28;20211;-80
2022/11/20 07:48:24;;;;;;;22.03;14.47;;;;;;;;;;5095809;28;20188;-79
2022/11/20 07:50:53;;;;;;;25.47;14.43;;;;;;;;;;5086526;28;20714;-80
2022/11/20 07:53:21;;;;;;;23.77;14.20;;;;;;;;;;5075080;28;20188;-80
2022/11/20 07:55:47;;;;;;;27.63;15.03;;;;;;;;;;5093058;28;20269;-78
2022/11/20 07:58:14;;;;;;;22.13;13.70;;;;;;;;;;5073168;28;20248;-79
2022/11/20 08:00:40;;;;;;;24.20;14.30;;;;;;;;;;5093217;28;20184;-80
2022/11/20 08:03:06;;;;;;;27.63;15.30;;;;;;;;;;5074203;28;20184;-80
2022/11/20 08:05:33;;;;;;;23.33;14.30;;;;;;;;;;5093290;28;20196;-80
2022/11/20 08:07:59;;;;;;;23.30;14.40;;;;;;;;;;5099103;28;20281;-81
2022/11/20 08:10:25;;;;;;;24.00;15.17;;;;;;;;;;5077647;28;20218;-81
2022/11/20 08:15:38;;;;;;;23.77;14.53;;;;;;;;;;5092942;28;20208;-80
2022/11/20 08:18:09;;;;;;;25.80;14.97;;;;;;;;;;5062775;28;20311;-80
2022/11/20 08:20:35;;;;;;;27.37;15.90;;;;;;;;;;5077705;28;20179;-79
2022/11/20 08:23:11;;;;;;;27.37;15.93;;;;;;;;;;5091427;28;20187;-80
2022/11/20 08:25:38;;;;;;;29.70;15.63;;;;;;;;;;5095396;28;20219;-79
2022/11/20 08:28:05;;;;;;;26.47;15.00;;;;;;;;;;5091689;28;20216;-80
2022/11/20 08:30:32;;;;;;;26.97;15.40;;;;;;;;;;5087502;28;20722;-80
2022/11/20 08:33:08;;;;;;;30.87;17.57;;;;;;;;;;5055961;28;20238;-80
2022/11/20 08:35:35;;;;;;;25.97;15.93;;;;;;;;;;5073484;28;20208;-80
2022/11/20 08:38:02;;;;;;;28.40;16.77;;;;;;;;;;5074678;28;20185;-79
2022/11/20 08:40:29;;;;;;;32.00;18.53;;;;;;;;;;5068403;28;20180;-80
2022/11/20 08:42:55;;;;;;;35.80;20.17;;;;;;;;;;5070094;28;20608;-79
2022/11/20 08:45:21;;;;;;;35.40;20.60;;;;;;;;;;5072279;28;20250;-78
2022/11/20 08:47:47;;;;;;;36.43;19.30;;;;;;;;;;5079109;28;20183;-78
2022/11/20 08:50:14;;;;;;;35.57;19.87;;;;;;;;;;5062966;28;20643;-79
2022/11/20 08:52:41;;;;;;;36.70;19.97;;;;;;;;;;5091817;28;20188;-79
2022/11/20 08:55:08;;;;;;;33.47;18.30;;;;;;;;;;5073806;28;20216;-78
2022/11/20 08:57:34;;;;;;;40.93;20.47;;;;;;;;;;5076295;28;20180;-78
2022/11/20 09:00:01;;;;;;;35.33;19.33;;;;;;;;;;5076046;28;20276;-78
2022/11/20 09:02:27;;;;;;;34.80;17.83;;;;;;;;;;5087853;28;20185;-78
2022/11/20 09:04:53;;;;;;;34.30;19.30;;;;;;;;;;5092457;28;20204;-78
2022/11/20 09:07:20;;;;;;;32.70;17.63;;;;;;;;;;5090773;28;20720;-78
2022/11/20 09:09:46;;;;;;;34.07;18.77;;;;;;;;;;5071170;28;20242;-78
2022/11/20 09:12:12;;;;;;;33.53;18.27;;;;;;;;;;5037861;28;20207;-78
2022/11/20 09:14:38;;;;;;;36.20;19.90;;;;;;;;;;5072542;28;20270;-78
2022/11/20 09:17:04;;;;;;;30.33;17.67;;;;;;;;;;5073767;28;20204;-78
2022/11/20 09:19:30;;;;;;;34.53;19.30;;;;;;;;;;5095489;28;20172;-78
2022/11/20 09:21:57;;;;;;;31.00;18.03;;;;;;;;;;5057375;28;20176;-77
2022/11/20 09:24:23;;;;;;;30.93;18.73;;;;;;;;;;5057993;28;20499;-78
2022/11/20 09:26:49;;;;;;;34.67;19.70;;;;;;;;;;5072336;28;20218;-78
2022/11/20 09:29:15;;;;;;;36.30;19.87;;;;;;;;;;5091529;28;20230;-79
2022/11/20 09:31:41;;;;;;;36.73;19.33;;;;;;;;;;5077101;28;20268;-78
2022/11/20 09:34:08;;;;;;;35.93;19.67;;;;;;;;;;5071979;28;20238;-78
2022/11/20 09:36:34;;;;;;;32.10;19.03;;;;;;;;;;5056771;28;20200;-77
2022/11/20 09:39:00;;;;;;;30.33;18.37;;;;;;;;;;5052828;28;20197;-78
2022/11/20 09:41:26;;;;;;;35.43;19.87;;;;;;;;;;5068655;28;20188;-78
2022/11/20 09:43:58;;;;;;;37.67;20.20;;;;;;;;;;5067315;28;20275;-78
2022/11/20 09:46:28;;;;;;;31.10;18.20;;;;;;;;;;5091859;28;20196;-78
2022/11/20 09:48:57;;;;;;;32.20;19.10;;;;;;;;;;5092597;28;20180;-77
2022/11/20 09:51:41;;;;;;;32.73;18.80;;;;;;;;;;5066690;28;20238;-78
2022/11/20 09:54:17;;;;;;;31.77;18.17;;;;;;;;;;5088501;28;20191;-77
2022/11/20 09:56:45;;;;;;;36.27;18.60;;;;;;;;;;5054862;28;20207;-78
2022/11/20 09:59:17;;;;;;;32.47;18.47;;;;;;;;;;5090161;28;20251;-78
2022/11/20 10:01:44;;;;;;;36.13;20.30;;;;;;;;;;5072801;28;20237;-78
2022/11/20 10:04:16;;;;;;;31.77;19.30;;;;;;;;;;5090365;28;20172;-78
2022/11/20 10:06:42;;;;;;;34.70;19.33;;;;;;;;;;5069168;28;20258;-80
2022/11/20 10:09:11;;;;;;;33.23;18.67;;;;;;;;;;5056992;28;20176;-79
2022/11/20 10:11:51;;;;;;;32.43;17.10;;;;;;;;;;5070915;28;20169;-78
2022/11/20 10:14:27;;;;;;;33.87;18.23;;;;;;;;;;5068919;28;20189;-78
2022/11/20 10:17:04;;;;;;;37.00;19.70;;;;;;;;;;5052008;28;20209;-78
2022/11/20 10:19:48;;;;;;;34.40;18.90;;;;;;;;;;5070717;28;20165;-78
2022/11/20 10:22:14;;;;;;;34.07;18.87;;;;;;;;;;5069804;28;20180;-78
2022/11/20 10:24:57;;;;;;;38.27;21.33;;;;;;;;;;5069572;28;20238;-78
2022/11/20 10:27:26;;;;;;;38.80;19.37;;;;;;;;;;5054634;28;20212;-77
2022/11/20 10:30:00;;;;;;;34.77;17.47;;;;;;;;;;5054915;28;20214;-78
2022/11/20 10:32:30;;;;;;;39.27;19.90;;;;;;;;;;5087779;28;20187;-78
2022/11/20 10:35:01;;;;;;;33.80;16.97;;;;;;;;;;5082441;28;20611;-79
2022/11/20 10:37:31;;;;;;;37.43;18.87;;;;;;;;;;5077926;28;20177;-78
2022/11/20 10:40:02;;;;;;;34.83;17.63;;;;;;;;;;5069467;28;20200;-78
2022/11/20 10:42:35;;;;;;;33.53;17.97;;;;;;;;;;5058204;28;20223;-78
2022/11/20 10:45:24;;;;;;;34.33;18.13;;;;;;;;;;5089740;28;20172;-78
2022/11/20 10:47:51;;;;;;;33.73;18.33;;;;;;;;;;5058490;28;20196;-78
2022/11/20 10:50:19;;;;;;;32.77;17.23;;;;;;;;;;5069477;28;20272;-78
2022/11/20 10:52:45;;;;;;;31.70;17.10;;;;;;;;;;5067983;28;20192;-79
2022/11/20 10:55:12;;;;;;;30.10;16.30;;;;;;;;;;5067746;28;20288;-78
2022/11/20 10:57:52;;;;;;;36.40;18.20;;;;;;;;;;5070997;28;20271;-78
2022/11/20 11:00:18;;;;;;;28.53;15.93;;;;;;;;;;5077418;28;20168;-78
2022/11/20 11:02:47;;;;;;;35.50;17.57;;;;;;;;;;5055003;28;20181;-79
2022/11/20 11:05:35;;;;;;;36.57;18.47;;;;;;;;;;5071636;28;20207;-78
2022/11/20 11:08:02;;;;;;;36.67;18.57;;;;;;;;;;5089383;28;20255;-78
2022/11/20 11:10:46;;;;;;;39.60;19.90;;;;;;;;;;5068961;28;20235;-78
2022/11/20 11:13:29;;;;;;;33.27;17.73;;;;;;;;;;5081987;28;20226;-78
2022/11/20 11:15:55;;;;;;;33.53;18.80;;;;;;;;;;5089587;28;20706;-78
2022/11/20 11:18:24;;;;;;;37.57;19.33;;;;;;;;;;5089349;28;20165;-78
2022/11/20 11:20:51;;;;;;;39.03;20.33;;;;;;;;;;5035135;28;20570;-78
2022/11/20 11:23:36;;;;;;;38.83;20.37;;;;;;;;;;5052903;28;20216;-78
2022/11/20 11:26:04;;;;;;;35.63;19.40;;;;;;;;;;5089895;28;20244;-78
2022/11/20 11:28:30;;;;;;;35.80;19.80;;;;;;;;;;5069452;28;20184;-78
2022/11/20 11:30:57;;;;;;;33.50;18.73;;;;;;;;;;5061977;28;20806;-78
2022/11/20 11:33:24;;;;;;;36.57;19.33;;;;;;;;;;5079656;28;20181;-78
2022/11/20 11:36:01;;;;;;;33.57;19.13;;;;;;;;;;5051046;28;22440;-78
2022/11/20 11:38:40;;;;;;;33.13;18.87;;;;;;;;;;5078082;28;20208;-78
2022/11/20 11:41:07;;;;;;;32.60;17.57;;;;;;;;;;5055195;28;20276;-78
2022/11/20 11:46:36;;;;;;;33.97;18.50;;;;;;;;;;5080853;28;20231;-78
2022/11/20 11:49:05;;;;;;;35.13;20.83;;;;;;;;;;5084148;28;20740;-78
2022/11/20 11:51:35;;;;;;;36.50;20.53;;;;;;;;;;5093018;28;20181;-78
2022/11/20 11:54:03;;;;;;;33.93;19.37;;;;;;;;;;5074097;28;20751;-77
2022/11/20 11:56:31;;;;;;;36.03;19.67;;;;;;;;;;5090710;28;20212;-77
2022/11/20 11:59:00;;;;;;;31.10;18.37;;;;;;;;;;5080614;28;20177;-77
2022/11/20 12:01:43;;;;;;;33.33;17.97;;;;;;;;;;5067645;28;20614;-78
2022/11/20 12:04:29;;;;;;;36.13;19.40;;;;;;;;;;5046185;28;20193;-77
2022/11/20 12:07:07;;;;;;;60.97;43.80;;;;;;;;;;5055986;28;20353;-79
2022/11/20 12:09:38;;;;;;;45.77;33.30;;;;;;;;;;5072171;28;20741;-79
2022/11/20 12:12:12;;;;;;;36.80;22.93;;;;;;;;;;5093045;28;20741;-80
2022/11/20 12:14:39;;;;;;;33.73;19.43;;;;;;;;;;5083759;28;20307;-77
2022/11/20 12:17:05;;;;;;;43.60;31.27;;;;;;;;;;5062768;28;20204;-78
2022/11/20 12:19:33;;;;;;;31.23;19.93;;;;;;;;;;5070379;28;20181;-78
2022/11/20 12:22:02;;;;;;;29.03;19.47;;;;;;;;;;5075784;28;20330;-78
2022/11/20 12:24:42;;;;;;;51.23;39.43;;;;;;;;;;5094590;28;20181;-80
2022/11/20 12:27:14;;;;;;;30.83;22.23;;;;;;;;;;5076777;28;20184;-79
2022/11/20 12:29:52;;;;;;;28.63;18.30;;;;;;;;;;5062103;28;20200;-78
2022/11/20 12:32:25;;;;;;;25.43;16.73;;;;;;;;;;5083826;28;20192;-79
2022/11/20 12:35:10;;;;;;;26.97;15.83;;;;;;;;;;5085041;28;20833;-78
2022/11/20 12:37:54;;;;;;;24.37;15.83;;;;;;;;;;5095358;28;20643;-78
2022/11/20 12:40:41;;;;;;;24.47;15.67;;;;;;;;;;5075770;28;20179;-81
2022/11/20 12:46:01;;;;;;;29.60;17.93;;;;;;;;;;5069212;28;20614;-79
2022/11/20 12:48:30;;;;;;;26.23;16.37;;;;;;;;;;5083954;28;20200;-79
2022/11/20 12:51:12;;;;;;;26.77;16.67;;;;;;;;;;5083647;28;20219;-79
2022/11/20 12:53:41;;;;;;;31.27;20.17;;;;;;;;;;5074796;28;21773;-78
2022/11/20 12:56:17;;;;;;;39.20;23.73;;;;;;;;;;5059810;28;20255;-78
2022/11/20 12:59:09;;;;;;;31.20;20.23;;;;;;;;;;5096143;28;20179;-77
2022/11/20 13:01:44;;;;;;;36.40;22.53;;;;;;;;;;5073538;28;20188;-78
2022/11/20 13:04:19;;;;;;;35.20;21.97;;;;;;;;;;5052401;28;20177;-77
2022/11/20 13:06:45;;;;;;;30.43;18.80;;;;;;;;;;5073779;28;20816;-77
2022/11/20 13:09:15;;;;;;;37.47;22.80;;;;;;;;;;5074897;28;20207;-77
2022/11/20 13:12:00;;;;;;;34.03;21.00;;;;;;;;;;5069246;28;20590;-77
2022/11/20 13:14:38;;;;;;;62.80;36.73;;;;;;;;;;5082984;28;20189;-79
2022/11/20 13:17:15;;;;;;;73.00;42.30;;;;;;;;;;5066448;28;20204;-75
2022/11/20 13:19:41;;;;;;;125.87;64.27;;;;;;;;;;5082405;28;20211;-79
2022/11/20 13:22:09;;;;;;;103.53;53.67;;;;;;;;;;5053515;28;20177;-80
2022/11/20 13:24:35;;;;;;;52.80;29.90;;;;;;;;;;5072753;28;20310;-80
2022/11/20 13:27:03;;;;;;;43.07;27.87;;;;;;;;;;5078611;28;20197;-79
2022/11/20 13:29:30;;;;;;;62.17;42.80;;;;;;;;;;5085627;28;20184;-82
2022/11/20 13:32:16;;;;;;;39.27;27.97;;;;;;;;;;5058958;28;20189;-81
2022/11/20 13:35:11;;;;;;;49.40;33.47;;;;;;;;;;5077725;28;20205;-82
2022/11/20 13:37:38;;;;;;;33.80;22.63;;;;;;;;;;5041807;28;20193;-82
2022/11/20 13:40:05;;;;;;;30.23;21.07;;;;;;;;;;5074832;28;20329;-82
2022/11/20 13:42:35;;;;;;;30.90;20.97;;;;;;;;;;5079115;28;20176;-84
2022/11/20 13:45:09;;;;;;;31.47;20.60;;;;;;;;;;5068669;28;20195;-79
2022/11/20 13:47:36;;;;;;;42.43;24.57;;;;;;;;;;5076863;28;20727;-79
2022/11/20 13:50:04;;;;;;;42.27;24.73;;;;;;;;;;5072356;28;20580;-78
2022/11/20 13:52:49;;;;;;;29.97;19.20;;;;;;;;;;5092334;28;20241;-81
2022/11/20 13:55:30;;;;;;;36.87;21.30;;;;;;;;;;5093168;28;20230;-78
2022/11/20 13:58:15;;;;;;;35.43;21.47;;;;;;;;;;5077169;28;20211;-80
2022/11/20 14:00:51;;;;;;;37.70;23.03;;;;;;;;;;5081206;28;20173;-81
2022/11/20 14:03:22;;;;;;;59.17;33.90;;;;;;;;;;5090000;28;20217;-82
2022/11/20 14:06:02;;;;;;;46.60;27.83;;;;;;;;;;5075881;28;20204;-79
2022/11/20 14:08:40;;;;;;;44.67;27.23;;;;;;;;;;5068929;28;20703;-80
2022/11/20 14:11:14;;;;;;;35.00;22.80;;;;;;;;;;5089526;28;20208;-80
2022/11/20 14:13:40;;;;;;;32.37;21.33;;;;;;;;;;5090883;28;20169;-80
2022/11/20 14:16:06;;;;;;;25.07;17.63;;;;;;;;;;5069562;28;20216;-80
2022/11/20 14:18:32;;;;;;;25.83;18.40;;;;;;;;;;5052548;28;20251;-80
2022/11/20 14:21:01;;;;;;;35.93;25.70;;;;;;;;;;5064533;28;20183;-80
2022/11/20 14:23:29;;;;;;;35.30;24.23;;;;;;;;;;5089013;28;20176;-80
2022/11/20 14:25:55;;;;;;;25.37;19.00;;;;;;;;;;5092171;28;20292;-80
2022/11/20 14:28:29;;;;;;;23.60;16.80;;;;;;;;;;5093638;28;20184;-80
2022/11/20 14:30:55;;;;;;;24.30;16.47;;;;;;;;;;5061111;28;20627;-82
2022/11/20 14:33:24;;;;;;;26.90;18.67;;;;;;;;;;5077865;28;20175;-80
2022/11/20 14:35:58;;;;;;;105.67;54.43;;;;;;;;;;5076582;28;20687;-81
2022/11/20 14:38:26;;;;;;;88.60;45.13;;;;;;;;;;5072009;28;20324;-81